Ironton, Indiana
Current Conditions -  °F | °C
As of 4:35 AM on Thursday 27 Nov 2014 (Local Time) from KDCY Reporting Station
Overcast Overcast  
Wind Chill: 19°   Ceiling: 1800
Heat Index: 30°   Visibility: 10mi
Dew Point: 27°   Wind: 14mph
Humidity: 88%   Direction: 340°NNW
Pressure: 30.25"   Gusts: NA
Location:  38.6262°N, 86.7615°W
Report Text: KDCY 271035Z AUTO 34012KT 10SM OVC018 M01/M03 A3025 RMK AO2 T10121030
Loading
Personal Weather Stations






























Interactive Weather Map New forecast layout! Learn more

10-Day Weather Forecast

Advertisements
Track Severe Weather on mobile